Time;durP1;ratioP1;P1;durP2;ratioP2;P2;SDS_P1;SDS_P2;PMS_P1;PMS_P2;Temp;Humidity;BMP_temperature;BMP_pressure;BME280_temperature;BME280_humidity;BME280_pressure;Samples;Min_cycle;Max_cycle;Signal;HPM_P1;HPM_P2
2022/11/22 00:00:39;;;;;;;6.05;2.78;;;7.60;99.90;;;;;;5042444;28;20036;-37
2022/11/22 00:03:04;;;;;;;7.88;3.28;;;7.60;99.90;;;;;;5042665;28;20028;-40
2022/11/22 00:05:30;;;;;;;8.88;3.20;;;7.60;99.90;;;;;;5042039;28;20029;-37
2022/11/22 00:07:56;;;;;;;4.88;2.85;;;7.60;99.90;;;;;;5042805;28;20102;-41
2022/11/22 00:10:21;;;;;;;9.48;3.83;;;7.60;99.90;;;;;;5042596;28;20021;-40
2022/11/22 00:12:50;;;;;;;7.75;3.28;;;7.60;99.90;;;;;;5041795;28;20032;-40
2022/11/22 00:15:15;;;;;;;6.30;2.95;;;7.60;99.90;;;;;;5043179;28;20094;-40
2022/11/22 00:17:41;;;;;;;6.72;3.10;;;7.60;99.90;;;;;;5042426;28;20552;-40
2022/11/22 00:20:12;;;;;;;7.70;3.40;;;7.70;99.90;;;;;;5042026;28;20510;-40
2022/11/22 00:22:38;;;;;;;4.93;2.67;;;7.60;99.90;;;;;;5042895;28;20032;-39
2022/11/22 00:25:04;;;;;;;5.80;3.22;;;7.60;99.90;;;;;;5022970;28;20796;-41
2022/11/22 00:27:29;;;;;;;5.72;3.25;;;7.70;99.90;;;;;;5035694;28;20106;-41
2022/11/22 00:29:55;;;;;;;8.38;3.13;;;7.60;99.90;;;;;;5043059;28;20392;-40
2022/11/22 00:32:20;;;;;;;6.57;3.60;;;7.70;99.90;;;;;;5042094;28;20029;-40
2022/11/22 00:34:52;;;;;;;6.43;3.05;;;7.70;99.90;;;;;;5041958;28;20562;-41
2022/11/22 00:37:18;;;;;;;8.05;4.00;;;7.70;99.90;;;;;;5042577;28;20062;-40
2022/11/22 00:39:43;;;;;;;6.35;3.65;;;7.70;99.90;;;;;;5040902;28;20041;-40
2022/11/22 00:42:09;;;;;;;7.00;3.67;;;7.70;99.90;;;;;;5041593;28;20028;-41
2022/11/22 00:44:34;;;;;;;8.15;3.60;;;7.70;99.90;;;;;;5042502;28;20066;-39
2022/11/22 00:47:02;;;;;;;8.07;3.40;;;7.70;99.90;;;;;;5041633;28;20122;-41
2022/11/22 00:49:28;;;;;;;8.27;4.00;;;7.70;99.90;;;;;;5042053;28;20116;-40
2022/11/22 00:51:53;;;;;;;8.65;3.90;;;7.80;99.90;;;;;;5041364;28;20025;-40
2022/11/22 00:54:19;;;;;;;6.03;3.33;;;7.80;99.90;;;;;;5041581;28;20530;-40
2022/11/22 00:56:44;;;;;;;8.07;4.03;;;7.80;99.90;;;;;;5042297;28;20024;-41
2022/11/22 00:59:10;;;;;;;6.65;3.90;;;7.80;99.90;;;;;;5041955;28;20036;-40
2022/11/22 01:01:35;;;;;;;7.03;3.60;;;7.80;99.90;;;;;;5041167;28;20086;-37
2022/11/22 01:04:01;;;;;;;5.88;3.80;;;7.80;99.90;;;;;;5041341;28;20543;-39
2022/11/22 01:06:27;;;;;;;5.43;3.30;;;7.80;99.90;;;;;;5042576;28;20366;-40
2022/11/22 01:08:52;;;;;;;7.55;3.30;;;7.80;99.90;;;;;;5041048;28;20111;-40
2022/11/22 01:11:19;;;;;;;4.53;3.30;;;7.80;99.90;;;;;;5041689;28;20040;-40
2022/11/22 01:13:44;;;;;;;5.55;3.25;;;7.80;99.90;;;;;;5042014;28;20774;-40
2022/11/22 01:16:14;;;;;;;8.60;4.13;;;7.90;99.90;;;;;;5040719;28;20033;-39
2022/11/22 01:18:40;;;;;;;6.53;3.40;;;7.90;99.90;;;;;;5041331;28;20036;-41
2022/11/22 01:21:12;;;;;;;7.65;2.90;;;7.90;99.90;;;;;;5041866;28;20037;-39
2022/11/22 01:23:37;;;;;;;6.18;3.33;;;7.90;99.90;;;;;;5041314;28;20020;-40
2022/11/22 01:26:07;;;;;;;6.68;3.30;;;7.90;99.90;;;;;;5041788;28;20102;-40
2022/11/22 01:28:32;;;;;;;6.72;3.80;;;7.90;99.90;;;;;;5041564;28;20028;-40
2022/11/22 01:30:58;;;;;;;6.70;3.60;;;7.90;99.90;;;;;;5041968;28;20025;-41
2022/11/22 01:33:23;;;;;;;6.00;3.35;;;7.90;99.90;;;;;;5041699;28;20522;-40
2022/11/22 01:35:53;;;;;;;6.30;3.38;;;7.90;99.90;;;;;;5040698;28;20041;-40
2022/11/22 01:38:18;;;;;;;4.10;3.42;;;7.90;99.90;;;;;;5041342;28;20476;-38
2022/11/22 01:40:44;;;;;;;7.03;3.55;;;7.90;99.90;;;;;;5040992;28;20029;-40
2022/11/22 01:43:17;;;;;;;7.00;3.33;;;7.90;99.90;;;;;;5041976;28;20025;-41
2022/11/22 01:45:46;;;;;;;6.53;3.10;;;7.90;99.90;;;;;;5041715;28;20630;-41
2022/11/22 01:48:11;;;;;;;5.55;2.80;;;7.90;99.90;;;;;;5042778;28;20024;-41
2022/11/22 01:50:39;;;;;;;5.97;3.30;;;7.80;99.90;;;;;;5041791;28;20472;-39
2022/11/22 01:53:19;;;;;;;6.72;3.22;;;7.80;99.90;;;;;;5041979;28;20025;-37
2022/11/22 01:55:46;;;;;;;3.95;2.67;;;7.80;99.90;;;;;;5041556;28;20794;-39
2022/11/22 01:58:14;;;;;;;6.55;3.22;;;7.80;99.90;;;;;;5041994;28;20025;-40
2022/11/22 02:00:39;;;;;;;5.82;3.40;;;7.70;99.90;;;;;;5041825;28;20044;-39
2022/11/22 02:03:09;;;;;;;5.68;2.80;;;7.70;99.90;;;;;;5041880;28;20021;-40
2022/11/22 02:05:35;;;;;;;5.78;3.33;;;7.70;99.90;;;;;;5041061;28;20049;-39
2022/11/22 02:08:14;;;;;;;5.63;3.17;;;7.60;99.90;;;;;;5042029;28;20102;-40
2022/11/22 02:10:43;;;;;;;5.78;2.72;;;7.60;99.90;;;;;;5041841;28;20028;-41
2022/11/22 02:13:10;;;;;;;5.20;3.08;;;7.60;99.90;;;;;;5041402;28;20025;-40
2022/11/22 02:15:35;;;;;;;5.05;2.47;;;7.50;99.90;;;;;;5041062;28;20076;-41
2022/11/22 02:18:01;;;;;;;7.43;3.40;;;7.50;99.90;;;;;;5040861;28;20555;-39
2022/11/22 02:20:27;;;;;;;6.70;3.05;;;7.50;99.90;;;;;;5041455;28;20047;-39
2022/11/22 02:23:16;;;;;;;5.70;2.85;;;7.60;99.90;;;;;;5043529;28;20040;-41
2022/11/22 02:25:52;;;;;;;4.80;3.00;;;7.60;99.90;;;;;;5045109;28;20145;-41
2022/11/22 02:28:17;;;;;;;3.60;3.25;;;7.60;99.90;;;;;;5045229;28;20033;-41
2022/11/22 02:30:46;;;;;;;4.68;3.13;;;7.60;99.90;;;;;;5044792;28;20025;-37
2022/11/22 02:33:12;;;;;;;7.22;3.03;;;7.60;99.90;;;;;;5044740;28;20029;-40
2022/11/22 02:35:40;;;;;;;3.42;2.80;;;7.70;99.90;;;;;;5044747;28;20056;-41
2022/11/22 02:38:21;;;;;;;7.60;2.90;;;7.70;99.90;;;;;;5045556;28;20025;-40
2022/11/22 02:40:58;;;;;;;5.43;2.83;;;7.70;99.90;;;;;;5043815;28;20435;-40
2022/11/22 02:43:28;;;;;;;5.95;2.97;;;7.70;99.90;;;;;;5034571;28;20029;-41
2022/11/22 02:45:54;;;;;;;4.07;2.60;;;7.70;99.90;;;;;;5044722;28;20028;-40
2022/11/22 02:48:22;;;;;;;8.82;3.15;;;7.70;99.90;;;;;;5044790;28;20506;-37
2022/11/22 02:50:48;;;;;;;5.93;2.85;;;7.60;99.90;;;;;;5044938;28;20570;-41
2022/11/22 02:53:13;;;;;;;7.53;2.95;;;7.60;99.90;;;;;;5044309;28;20021;-39
2022/11/22 02:55:39;;;;;;;5.25;2.25;;;7.60;99.90;;;;;;5045310;28;20067;-42
2022/11/22 02:58:05;;;;;;;4.95;2.40;;;7.60;99.90;;;;;;5044485;28;20024;-40
2022/11/22 03:00:32;;;;;;;4.85;2.15;;;7.60;99.90;;;;;;5044360;28;20068;-40
2022/11/22 03:02:57;;;;;;;5.45;2.30;;;7.60;99.90;;;;;;5044759;28;20044;-41
2022/11/22 03:05:26;;;;;;;8.48;2.60;;;7.60;99.90;;;;;;5044220;28;20060;-40
2022/11/22 03:07:52;;;;;;;5.30;2.22;;;7.60;99.90;;;;;;5043553;28;20028;-38
2022/11/22 03:10:17;;;;;;;8.95;2.70;;;7.60;99.90;;;;;;5044548;28;20028;-40
2022/11/22 03:12:43;;;;;;;4.93;2.33;;;7.60;99.90;;;;;;5043983;28;20048;-40
2022/11/22 03:15:09;;;;;;;3.33;1.98;;;7.60;99.90;;;;;;5043552;28;20029;-41
2022/11/22 03:17:34;;;;;;;5.75;2.20;;;7.60;99.90;;;;;;5043124;28;20396;-42
2022/11/22 03:20:00;;;;;;;6.32;2.10;;;7.60;99.90;;;;;;5043867;28;20044;-41
2022/11/22 03:22:26;;;;;;;5.55;2.28;;;7.60;99.90;;;;;;5042993;28;20021;-40
2022/11/22 03:24:51;;;;;;;5.80;2.22;;;7.60;99.90;;;;;;5043811;28;20036;-40
2022/11/22 03:27:17;;;;;;;6.97;2.25;;;7.60;99.90;;;;;;5043292;28;20032;-40
2022/11/22 03:29:42;;;;;;;5.40;2.28;;;7.50;99.90;;;;;;5042814;28;20025;-39
2022/11/22 03:32:08;;;;;;;4.40;1.70;;;7.50;99.90;;;;;;5044212;28;20024;-41
2022/11/22 03:34:33;;;;;;;6.80;1.90;;;7.50;99.90;;;;;;5042392;28;20055;-41
2022/11/22 03:36:59;;;;;;;6.88;2.53;;;7.50;99.90;;;;;;5043924;28;20028;-41
2022/11/22 03:39:24;;;;;;;6.00;1.98;;;7.40;99.90;;;;;;5043643;28;20025;-37
2022/11/22 03:41:50;;;;;;;6.43;2.50;;;7.40;99.90;;;;;;5043559;28;20029;-39
2022/11/22 03:44:15;;;;;;;5.60;1.95;;;7.40;99.90;;;;;;5043070;28;20610;-40
2022/11/22 03:46:41;;;;;;;9.77;2.67;;;7.30;99.90;;;;;;5042600;28;20025;-39
2022/11/22 03:49:06;;;;;;;5.72;2.17;;;7.30;99.90;;;;;;5041451;28;20031;-39
2022/11/22 03:51:35;;;;;;;5.55;1.90;;;7.20;99.90;;;;;;5043775;28;20082;-40
2022/11/22 03:54:04;;;;;;;10.15;2.45;;;7.20;99.90;;;;;;5043156;28;20021;-41
2022/11/22 03:56:29;;;;;;;6.15;2.00;;;7.20;99.90;;;;;;5043186;28;20027;-38
2022/11/22 03:58:57;;;;;;;6.75;2.35;;;7.10;99.90;;;;;;5042791;28;20024;-39
2022/11/22 04:01:23;;;;;;;5.55;1.98;;;7.10;99.90;;;;;;5043075;28;20106;-38
2022/11/22 04:03:49;;;;;;;7.10;1.98;;;7.10;99.90;;;;;;5042778;28;20013;-38
2022/11/22 04:06:14;;;;;;;5.85;2.10;;;7.10;99.90;;;;;;5043209;28;20060;-39
2022/11/22 04:08:40;;;;;;;7.40;1.95;;;7.10;99.90;;;;;;5043113;28;20021;-40
2022/11/22 04:11:05;;;;;;;6.43;1.85;;;7.00;99.90;;;;;;5042996;28;20061;-41
2022/11/22 04:16:15;;;;;;;5.43;1.90;;;7.00;99.90;;;;;;5041695;28;20048;-41
2022/11/22 04:18:41;;;;;;;5.00;1.88;;;6.90;99.90;;;;;;5042695;28;20021;-38
2022/11/22 04:26:38;;;;;;;6.10;2.03;;;6.90;99.90;;;;;;5041457;28;20044;-40
2022/11/22 04:29:03;;;;;;;8.07;1.83;;;6.80;99.90;;;;;;5043016;28;20724;-40
2022/11/22 04:34:13;;;;;;;10.43;1.95;;;6.80;99.90;;;;;;5043278;28;20132;-41
2022/11/22 04:36:38;;;;;;;5.38;1.80;;;6.80;99.90;;;;;;5042485;28;20041;-42
2022/11/22 04:39:04;;;;;;;4.78;1.60;;;6.70;99.90;;;;;;5042303;28;20021;-39
2022/11/22 04:41:29;;;;;;;5.88;1.88;;;6.80;99.90;;;;;;5042735;28;20537;-40
2022/11/22 04:46:39;;;;;;;5.60;1.60;;;6.70;99.90;;;;;;5041607;28;20102;-40
2022/11/22 04:49:05;;;;;;;7.82;1.92;;;6.70;99.90;;;;;;5042800;28;20021;-39
2022/11/22 04:54:14;;;;;;;7.00;1.80;;;6.60;99.90;;;;;;5021973;28;20052;-42
2022/11/22 04:56:40;;;;;;;9.70;1.67;;;6.60;99.90;;;;;;5038946;28;20041;-40
2022/11/22 04:59:05;;;;;;;7.38;1.48;;;6.60;99.90;;;;;;5042260;28;20049;-39
2022/11/22 05:01:31;;;;;;;4.53;1.60;;;6.60;99.90;;;;;;5041149;28;20043;-42
2022/11/22 05:03:56;;;;;;;5.10;1.58;;;6.50;99.90;;;;;;5041795;28;20025;-41
2022/11/22 05:06:22;;;;;;;4.25;1.40;;;6.50;99.90;;;;;;5042012;28;20029;-40
2022/11/22 05:08:47;;;;;;;5.25;1.50;;;6.50;99.90;;;;;;5041767;28;20112;-40
2022/11/22 05:11:13;;;;;;;4.70;1.67;;;6.40;99.90;;;;;;5041895;28;20979;-39
2022/11/22 05:13:40;;;;;;;6.57;1.52;;;6.40;99.90;;;;;;5041085;28;20029;-40
2022/11/22 05:16:09;;;;;;;6.88;1.60;;;6.40;99.90;;;;;;5041136;28;20366;-37
2022/11/22 05:18:35;;;;;;;8.32;2.50;;;6.40;99.90;;;;;;5031667;28;20032;-40
2022/11/22 05:21:19;;;;;;;4.85;1.45;;;6.40;99.90;;;;;;5041100;28;20719;-39
2022/11/22 05:23:53;;;;;;;3.33;1.30;;;6.30;99.90;;;;;;5031357;28;20083;-41
2022/11/22 05:26:27;;;;;;;4.53;1.50;;;6.30;99.90;;;;;;5042082;28;20179;-41
2022/11/22 05:28:53;;;;;;;5.93;1.70;;;6.30;99.90;;;;;;5029947;28;20021;-40
2022/11/22 05:31:22;;;;;;;8.70;2.28;;;6.20;99.90;;;;;;5041274;28;20033;-41
2022/11/22 05:33:49;;;;;;;10.02;2.20;;;6.30;99.90;;;;;;5041910;28;20025;-40
2022/11/22 05:36:15;;;;;;;9.77;2.95;;;6.20;99.90;;;;;;5041129;28;20049;-41
2022/11/22 05:38:41;;;;;;;6.07;1.90;;;6.20;99.90;;;;;;5041947;28;20017;-39
2022/11/22 05:41:12;;;;;;;6.63;2.00;;;6.20;99.90;;;;;;5041973;28;20511;-39
2022/11/22 05:43:38;;;;;;;6.18;1.65;;;6.20;99.90;;;;;;5040692;28;20029;-39
2022/11/22 05:46:06;;;;;;;8.48;1.75;;;6.20;99.90;;;;;;5041998;28;20087;-35
2022/11/22 05:48:32;;;;;;;5.70;1.52;;;6.20;99.90;;;;;;5041821;28;20115;-40
2022/11/22 05:50:57;;;;;;;8.38;2.45;;;6.20;99.90;;;;;;5041189;28;20035;-38
2022/11/22 05:53:23;;;;;;;8.43;2.17;;;6.20;99.90;;;;;;5041591;28;20086;-35
2022/11/22 05:55:51;;;;;;;5.60;1.80;;;6.20;99.90;;;;;;5040932;28;20034;-39
2022/11/22 05:58:16;;;;;;;8.00;1.73;;;6.20;99.90;;;;;;5043983;28;20054;-38
2022/11/22 06:00:44;;;;;;;6.85;1.90;;;6.20;99.90;;;;;;5045225;28;20032;-38
2022/11/22 06:03:10;;;;;;;9.93;2.22;;;6.10;99.90;;;;;;5044466;28;20025;-37
2022/11/22 06:05:35;;;;;;;4.55;2.13;;;6.10;99.90;;;;;;5045122;28;20036;-39
2022/11/22 06:08:07;;;;;;;5.60;2.13;;;6.10;99.90;;;;;;5045574;28;20120;-39
2022/11/22 06:10:35;;;;;;;7.03;1.77;;;6.10;99.90;;;;;;5044538;28;20025;-41
2022/11/22 06:13:01;;;;;;;5.63;1.60;;;6.10;99.90;;;;;;5044995;28;20021;-38
2022/11/22 06:15:27;;;;;;;4.20;1.60;;;6.10;99.90;;;;;;5045802;28;20033;-41
2022/11/22 06:17:55;;;;;;;9.63;2.03;;;6.00;99.90;;;;;;5044398;28;20021;-37
2022/11/22 06:20:20;;;;;;;6.25;1.63;;;6.00;99.90;;;;;;5045019;28;20040;-39
2022/11/22 06:22:46;;;;;;;5.80;1.50;;;6.00;99.90;;;;;;5045753;28;20025;-40
2022/11/22 06:25:14;;;;;;;7.68;2.00;;;6.00;99.90;;;;;;5044433;28;20036;-40
2022/11/22 06:27:40;;;;;;;6.45;1.60;;;6.00;99.90;;;;;;5045009;28;20033;-40
2022/11/22 06:30:06;;;;;;;7.20;3.00;;;5.90;99.90;;;;;;5045123;28;20029;-41
2022/11/22 06:32:33;;;;;;;6.28;2.28;;;6.00;99.90;;;;;;5044411;28;20032;-40
2022/11/22 06:34:59;;;;;;;5.65;2.10;;;6.00;99.90;;;;;;5044886;28;20053;-40
2022/11/22 06:37:25;;;;;;;4.25;2.00;;;5.90;99.90;;;;;;5045712;28;20032;-39
2022/11/22 06:39:50;;;;;;;7.10;1.88;;;5.90;99.90;;;;;;5044124;28;20506;-40
2022/11/22 06:42:17;;;;;;;6.30;1.88;;;5.90;99.90;;;;;;5045129;28;20082;-41
2022/11/22 06:44:42;;;;;;;6.03;2.20;;;5.80;99.90;;;;;;5044002;28;20075;-40
2022/11/22 06:47:10;;;;;;;6.70;1.90;;;5.80;99.90;;;;;;5043916;28;20557;-40
2022/11/22 06:49:36;;;;;;;11.65;2.33;;;5.70;99.90;;;;;;5044976;28;20021;-40
2022/11/22 06:52:02;;;;;;;7.40;1.92;;;5.70;99.90;;;;;;5044275;28;20029;-39
2022/11/22 06:54:28;;;;;;;6.47;1.55;;;5.70;99.90;;;;;;5044718;28;20043;-40
2022/11/22 06:56:53;;;;;;;8.52;1.90;;;5.70;99.90;;;;;;5044326;28;20028;-40
2022/11/22 06:59:19;;;;;;;7.65;2.42;;;5.70;99.90;;;;;;5044204;28;20459;-41
2022/11/22 07:01:44;;;;;;;3.47;1.50;;;5.70;99.90;;;;;;5043770;28;20025;-40
2022/11/22 07:04:10;;;;;;;7.43;2.10;;;5.60;99.90;;;;;;5043890;28;20025;-41
2022/11/22 07:06:37;;;;;;;5.07;2.22;;;5.70;99.90;;;;;;5043318;28;20028;-39
2022/11/22 07:09:06;;;;;;;6.07;2.05;;;5.60;99.90;;;;;;5043183;28;20104;-40
2022/11/22 07:11:33;;;;;;;8.35;2.28;;;5.60;99.90;;;;;;5043594;28;20025;-41
2022/11/22 07:14:00;;;;;;;12.18;2.50;;;5.60;99.90;;;;;;5042960;28;20111;-40
2022/11/22 07:16:25;;;;;;;9.10;2.47;;;5.60;99.90;;;;;;5043699;28;20029;-39
2022/11/22 07:18:51;;;;;;;10.25;2.47;;;5.60;99.90;;;;;;5043204;28;20028;-41
2022/11/22 07:21:19;;;;;;;8.23;2.20;;;5.60;99.90;;;;;;5042203;28;20040;-35
2022/11/22 07:23:47;;;;;;;4.55;1.40;;;5.60;99.90;;;;;;5041270;28;20025;-40
2022/11/22 07:26:15;;;;;;;8.20;2.10;;;5.60;99.90;;;;;;5042366;28;20052;-41
2022/11/22 07:28:40;;;;;;;8.18;2.45;;;5.70;99.90;;;;;;5042493;28;20044;-39
2022/11/22 07:31:08;;;;;;;8.07;2.38;;;5.70;99.90;;;;;;5043123;28;20036;-40
2022/11/22 07:33:34;;;;;;;8.85;2.28;;;5.80;99.90;;;;;;5042389;28;20060;-40
2022/11/22 07:36:05;;;;;;;6.88;2.28;;;5.80;99.90;;;;;;5041855;28;20242;-37
2022/11/22 07:38:31;;;;;;;9.43;2.50;;;5.90;99.90;;;;;;5042728;28;20040;-39
2022/11/22 07:40:56;;;;;;;5.90;2.15;;;6.00;99.90;;;;;;5043098;28;20076;-40
2022/11/22 07:43:22;;;;;;;9.68;2.30;;;6.00;99.90;;;;;;5042766;28;20040;-41
2022/11/22 07:45:47;;;;;;;5.15;1.95;;;6.10;99.90;;;;;;5042628;28;20029;-41
2022/11/22 07:48:13;;;;;;;9.43;2.20;;;6.10;99.90;;;;;;5042488;28;20021;-40
2022/11/22 07:50:40;;;;;;;6.57;2.13;;;6.20;99.90;;;;;;5041971;28;20029;-41
2022/11/22 07:53:07;;;;;;;7.72;2.10;;;6.20;99.90;;;;;;5040645;28;20397;-38
2022/11/22 07:55:32;;;;;;;8.43;2.40;;;6.20;99.90;;;;;;5041103;28;20075;-40
2022/11/22 07:57:58;;;;;;;9.95;2.38;;;6.20;99.90;;;;;;5041675;28;20029;-41
2022/11/22 08:00:24;;;;;;;8.55;2.00;;;6.30;99.90;;;;;;5042391;28;20044;-41
2022/11/22 08:02:50;;;;;;;7.05;2.40;;;6.30;99.90;;;;;;5041453;28;20036;-41
2022/11/22 08:05:16;;;;;;;8.15;2.58;;;6.40;99.90;;;;;;5041826;28;20497;-41
2022/11/22 08:07:49;;;;;;;7.97;2.63;;;6.40;99.90;;;;;;5043704;28;20017;-38
2022/11/22 08:10:15;;;;;;;7.88;2.40;;;6.40;99.90;;;;;;5042027;28;20040;-39
2022/11/22 08:12:41;;;;;;;11.55;3.42;;;6.50;99.90;;;;;;5043193;28;20028;-39
2022/11/22 08:15:08;;;;;;;8.50;2.28;;;6.50;99.90;;;;;;5043894;28;20029;-40
2022/11/22 08:17:34;;;;;;;6.45;2.30;;;6.50;99.90;;;;;;5042473;28;20527;-39
2022/11/22 08:19:59;;;;;;;11.70;3.55;;;6.50;99.90;;;;;;5041919;28;20071;-40
2022/11/22 08:22:25;;;;;;;8.50;2.05;;;6.50;99.90;;;;;;5043178;28;20025;-40
2022/11/22 08:24:51;;;;;;;7.88;2.20;;;6.60;99.90;;;;;;5042559;28;20032;-41
2022/11/22 08:27:19;;;;;;;9.48;2.30;;;6.60;99.90;;;;;;5042999;28;20398;-40
2022/11/22 08:29:44;;;;;;;4.55;2.00;;;6.60;99.90;;;;;;5042916;28;20127;-36
2022/11/22 08:32:10;;;;;;;6.78;2.17;;;6.60;99.90;;;;;;5042348;28;20037;-36
2022/11/22 08:34:35;;;;;;;7.18;2.45;;;6.60;99.90;;;;;;5042372;28;20565;-40
2022/11/22 08:37:01;;;;;;;7.35;1.90;;;6.60;99.90;;;;;;5042703;28;20095;-40
2022/11/22 08:39:26;;;;;;;8.50;2.50;;;6.70;99.90;;;;;;5041902;28;20559;-41
2022/11/22 08:41:52;;;;;;;6.28;2.40;;;6.70;99.90;;;;;;5042887;28;20033;-40
2022/11/22 08:44:17;;;;;;;6.60;1.98;;;6.70;99.90;;;;;;5042947;28;20083;-41
2022/11/22 08:46:43;;;;;;;7.30;1.92;;;6.70;99.90;;;;;;5042060;28;20029;-41
2022/11/22 08:49:10;;;;;;;7.50;2.38;;;6.70;99.90;;;;;;5041869;28;20078;-40
2022/11/22 08:51:35;;;;;;;7.13;2.00;;;6.80;99.90;;;;;;5042148;28;20112;-41
2022/11/22 08:54:01;;;;;;;6.65;2.10;;;6.80;99.90;;;;;;5042713;28;20131;-37
2022/11/22 08:56:26;;;;;;;5.05;1.98;;;6.80;99.90;;;;;;5042677;28;20786;-40
2022/11/22 08:58:53;;;;;;;6.93;2.20;;;6.90;99.90;;;;;;5041577;28;20031;-41
2022/11/22 09:01:22;;;;;;;6.30;1.90;;;6.90;99.90;;;;;;5041455;28;20406;-40
2022/11/22 09:03:48;;;;;;;10.02;2.90;;;7.00;99.90;;;;;;5040758;28;20642;-41
2022/11/22 09:06:16;;;;;;;6.47;1.83;;;7.00;99.90;;;;;;5038471;28;20526;-40
2022/11/22 09:08:42;;;;;;;5.72;1.90;;;7.00;99.90;;;;;;5040639;28;20028;-37
2022/11/22 09:11:10;;;;;;;5.25;2.00;;;7.10;99.90;;;;;;5041599;28;20029;-40
2022/11/22 09:13:36;;;;;;;6.97;1.85;;;7.00;99.90;;;;;;5040703;28;20025;-39
2022/11/22 09:16:06;;;;;;;6.95;1.70;;;7.10;99.90;;;;;;5041516;28;20147;-38
2022/11/22 09:18:32;;;;;;;4.60;1.60;;;7.10;99.90;;;;;;5042387;28;20029;-39
2022/11/22 09:21:05;;;;;;;5.00;1.85;;;7.20;99.90;;;;;;5040486;28;20037;-40
2022/11/22 09:23:32;;;;;;;6.75;1.70;;;7.20;99.90;;;;;;5041978;28;20031;-40
2022/11/22 09:26:05;;;;;;;7.28;1.80;;;7.20;99.90;;;;;;5040440;28;20603;-41
2022/11/22 09:28:32;;;;;;;5.57;1.85;;;7.20;99.90;;;;;;5041161;28;20550;-41
2022/11/22 09:31:01;;;;;;;3.25;1.67;;;7.30;99.90;;;;;;5041147;28;20084;-41
2022/11/22 09:33:27;;;;;;;4.65;1.73;;;7.30;99.90;;;;;;5045222;28;20103;-40
2022/11/22 09:36:01;;;;;;;10.02;2.50;;;7.30;99.90;;;;;;5043915;28;20061;-40
2022/11/22 09:38:27;;;;;;;7.00;1.95;;;7.40;99.90;;;;;;5045187;28;20048;-40
2022/11/22 09:40:53;;;;;;;8.43;2.22;;;7.40;99.90;;;;;;5044365;28;20468;-39
2022/11/22 09:43:31;;;;;;;5.75;1.67;;;7.40;99.90;;;;;;5045186;28;20102;-40
2022/11/22 09:46:06;;;;;;;8.20;2.17;;;7.40;99.90;;;;;;5044303;28;20025;-40
2022/11/22 09:48:56;;;;;;;5.82;2.10;;;7.40;99.90;;;;;;5044330;28;20032;-39
2022/11/22 09:51:30;;;;;;;6.78;1.65;;;7.50;99.90;;;;;;5042962;28;20492;-42
2022/11/22 09:54:05;;;;;;;3.67;1.50;;;7.50;99.90;;;;;;5045555;28;20087;-43
2022/11/22 09:56:32;;;;;;;8.32;1.85;;;7.50;99.90;;;;;;5044680;28;20036;-41
2022/11/22 09:59:16;;;;;;;4.07;1.45;;;7.60;99.90;;;;;;5044150;28;20029;-40
2022/11/22 10:01:43;;;;;;;5.85;1.90;;;7.60;99.90;;;;;;5044522;28;20095;-40
2022/11/22 10:04:32;;;;;;;6.82;2.28;;;7.70;99.90;;;;;;5044121;28;20029;-41
2022/11/22 10:07:02;;;;;;;2.85;1.48;;;7.70;99.90;;;;;;5043518;28;20575;-39
2022/11/22 10:09:37;;;;;;;7.07;2.38;;;7.80;99.90;;;;;;5043683;28;20032;-41
2022/11/22 10:12:26;;;;;;;5.47;1.65;;;7.80;99.90;;;;;;5043698;28;20032;-40
2022/11/22 10:15:21;;;;;;;7.80;1.80;;;7.90;99.90;;;;;;5023991;28;20044;-39
2022/11/22 10:17:56;;;;;;;5.60;2.00;;;8.00;99.90;;;;;;5042482;28;20399;-40
2022/11/22 10:20:23;;;;;;;4.53;1.95;;;8.00;99.90;;;;;;5043866;28;20102;-39
2022/11/22 10:22:49;;;;;;;6.07;1.60;;;8.00;99.90;;;;;;5043558;28;20021;-40
2022/11/22 10:25:17;;;;;;;5.05;1.90;;;8.00;99.90;;;;;;5043766;28;20039;-40
2022/11/22 10:27:47;;;;;;;4.78;1.80;;;8.10;99.90;;;;;;5043879;28;20029;-40
2022/11/22 10:30:15;;;;;;;4.10;1.88;;;8.10;99.90;;;;;;5043329;28;20033;-39
2022/11/22 10:33:24;;;;;;;4.75;1.92;;;8.10;99.90;;;;;;5043454;28;20017;-38
2022/11/22 10:35:58;;;;;;;3.35;1.60;;;8.10;99.90;;;;;;5000375;28;20053;-37
2022/11/22 10:38:45;;;;;;;5.28;1.80;;;8.10;99.90;;;;;;5018894;28;20144;-40
2022/11/22 10:41:37;;;;;;;5.03;1.60;;;8.20;99.90;;;;;;5036824;28;20049;-40
2022/11/22 10:44:14;;;;;;;4.93;1.77;;;8.20;99.90;;;;;;5040159;28;20056;-39
2022/11/22 10:46:56;;;;;;;7.80;1.50;;;8.20;99.90;;;;;;5042886;28;20025;-40
2022/11/22 10:49:51;;;;;;;5.88;2.60;;;8.20;99.90;;;;;;5042220;28;20029;-40
2022/11/22 10:52:28;;;;;;;4.50;1.42;;;8.20;99.90;;;;;;5043469;28;20028;-39
2022/11/22 10:55:03;;;;;;;4.13;1.23;;;8.20;99.90;;;;;;5033565;28;20020;-40
2022/11/22 10:58:07;;;;;;;3.70;1.40;;;8.20;99.90;;;;;;5043217;28;20017;-41
2022/11/22 11:00:38;;;;;;;4.47;1.67;;;8.30;99.90;;;;;;5035847;28;20040;-39
2022/11/22 11:03:19;;;;;;;5.25;1.63;;;8.20;99.90;;;;;;5042936;28;20035;-39
2022/11/22 11:06:06;;;;;;;4.72;1.50;;;8.20;99.90;;;;;;5043394;28;20110;-40
2022/11/22 11:08:49;;;;;;;4.50;1.45;;;8.20;99.90;;;;;;5044753;28;20025;-40
2022/11/22 11:11:15;;;;;;;4.72;1.70;;;8.30;99.90;;;;;;5043284;28;20040;-40
2022/11/22 11:13:48;;;;;;;5.35;1.67;;;8.20;99.90;;;;;;5042158;28;20706;-40
2022/11/22 11:16:22;;;;;;;4.22;1.20;;;8.30;99.90;;;;;;5043495;28;20112;-40
2022/11/22 11:18:59;;;;;;;2.90;1.30;;;8.30;99.90;;;;;;5043045;28;20028;-41
2022/11/22 11:21:26;;;;;;;1.40;1.10;;;8.30;99.90;;;;;;5042204;28;20060;-41
2022/11/22 11:23:51;;;;;;;3.95;1.02;;;8.30;99.90;;;;;;5042772;28;20024;-40
2022/11/22 11:26:30;;;;;;;6.20;1.50;;;8.30;99.90;;;;;;5043679;28;20677;-41
2022/11/22 11:29:44;;;;;;;2.75;1.20;;;8.40;99.90;;;;;;5043265;28;20048;-39
2022/11/22 11:32:11;;;;;;;4.28;1.95;;;8.40;99.90;;;;;;5035838;28;20040;-40
2022/11/22 11:34:40;;;;;;;3.03;1.60;;;8.40;99.90;;;;;;5040915;28;20680;-40
2022/11/22 11:37:17;;;;;;;2.88;1.58;;;8.40;99.90;;;;;;5041429;28;20053;-41
2022/11/22 11:39:45;;;;;;;2.80;1.95;;;8.40;99.90;;;;;;5041589;28;20030;-41
2022/11/22 11:42:26;;;;;;;2.65;1.17;;;8.50;99.90;;;;;;5042212;28;20035;-41
2022/11/22 11:44:52;;;;;;;3.58;1.10;;;8.50;99.90;;;;;;5042087;28;20090;-40
2022/11/22 11:47:33;;;;;;;1.52;0.90;;;8.50;99.90;;;;;;5041813;28;20029;-38
2022/11/22 11:49:58;;;;;;;3.22;1.13;;;8.50;99.90;;;;;;5042195;28;20365;-38
2022/11/22 11:52:27;;;;;;;2.90;1.27;;;8.50;99.90;;;;;;5042004;28;20527;-39
2022/11/22 11:54:55;;;;;;;2.80;1.40;;;8.50;99.90;;;;;;5040564;28;20025;-38
2022/11/22 11:57:27;;;;;;;3.80;2.33;;;8.60;99.90;;;;;;5042385;28;20029;-39
2022/11/22 11:59:54;;;;;;;3.53;1.40;;;8.60;99.90;;;;;;5041920;28;20388;-37
2022/11/22 12:02:24;;;;;;;3.53;1.30;;;8.70;99.90;;;;;;5042080;28;20029;-37
2022/11/22 12:04:53;;;;;;;2.08;1.08;;;8.70;99.90;;;;;;5042227;28;20493;-40
2022/11/22 12:07:24;;;;;;;3.08;0.90;;;8.80;99.90;;;;;;5042505;28;20040;-40
2022/11/22 12:09:51;;;;;;;3.50;0.95;;;8.80;99.90;;;;;;5041570;28;20047;-41
2022/11/22 12:12:32;;;;;;;1.55;0.90;;;8.90;99.90;;;;;;5042015;28;20048;-41
2022/11/22 12:15:20;;;;;;;2.08;0.93;;;9.00;99.90;;;;;;5041848;28;20960;-41
2022/11/22 12:17:53;;;;;;;2.17;0.90;;;9.00;99.90;;;;;;5032801;28;20032;-40
2022/11/22 12:20:42;;;;;;;1.75;0.98;;;9.00;99.90;;;;;;5042066;28;20171;-41
2022/11/22 12:23:29;;;;;;;0.77;0.70;;;9.00;99.90;;;;;;5040846;28;20021;-42
2022/11/22 12:25:59;;;;;;;1.48;0.77;;;9.00;99.90;;;;;;5041714;28;20025;-42
2022/11/22 12:28:27;;;;;;;1.35;0.70;;;9.00;99.90;;;;;;5041918;28;20113;-39
2022/11/22 12:31:13;;;;;;;1.88;0.88;;;9.00;99.90;;;;;;5040967;28;20025;-44
2022/11/22 12:34:14;;;;;;;1.73;0.70;;;9.00;99.90;;;;;;5041508;28;20111;-39
2022/11/22 12:36:52;;;;;;;1.98;0.75;;;8.90;99.90;;;;;;5036152;28;20045;-40
2022/11/22 12:39:23;;;;;;;2.05;0.70;;;8.90;99.90;;;;;;5042707;28;20076;-39
2022/11/22 12:41:54;;;;;;;1.17;0.90;;;8.90;99.90;;;;;;5048814;28;20045;-42
2022/11/22 12:44:20;;;;;;;1.77;0.70;;;8.90;99.90;;;;;;5040089;28;20802;-41
2022/11/22 12:46:53;;;;;;;1.15;0.73;;;8.90;99.90;;;;;;5041091;28;20028;-40
2022/11/22 12:49:29;;;;;;;1.23;0.80;;;8.90;99.90;;;;;;5041071;28;20024;-41
2022/11/22 12:52:13;;;;;;;0.68;0.60;;;8.90;99.90;;;;;;5040063;28;20017;-41
2022/11/22 12:55:01;;;;;;;1.45;0.90;;;8.90;99.90;;;;;;5040794;28;20047;-40
2022/11/22 12:57:38;;;;;;;1.90;1.55;;;8.80;99.90;;;;;;5042099;28;20029;-41
2022/11/22 13:00:03;;;;;;;1.35;0.80;;;8.90;99.90;;;;;;5041150;28;20052;-40
2022/11/22 13:02:38;;;;;;;2.40;0.90;;;8.90;99.90;;;;;;5041681;28;20025;-40
2022/11/22 13:05:12;;;;;;;0.95;0.65;;;8.80;99.90;;;;;;5040457;28;20050;-41
2022/11/22 13:07:54;;;;;;;1.00;0.60;;;8.80;99.90;;;;;;5041380;28;20024;-41
2022/11/22 13:10:56;;;;;;;1.00;0.53;;;8.80;99.90;;;;;;5040555;28;20574;-40
2022/11/22 13:13:41;;;;;;;1.70;0.77;;;8.80;99.90;;;;;;5027206;28;20040;-42
2022/11/22 13:16:09;;;;;;;1.45;0.60;;;8.80;99.90;;;;;;5041125;28;20021;-41
2022/11/22 13:18:48;;;;;;;2.05;1.40;;;8.80;99.90;;;;;;5040212;28;20421;-39
2022/11/22 13:21:29;;;;;;;1.45;0.90;;;8.90;99.90;;;;;;5041220;28;20037;-39
2022/11/22 13:24:18;;;;;;;3.17;0.80;;;8.90;99.90;;;;;;5040831;28;20043;-37
2022/11/22 13:27:00;;;;;;;0.80;0.70;;;8.90;99.90;;;;;;5060399;28;20103;-40